Time;durP1;ratioP1;P1;durP2;ratioP2;P2;SDS_P1;SDS_P2;PMS_P1;PMS_P2;Temp;Humidity;BMP_temperature;BMP_pressure;BME280_temperature;BME280_humidity;BME280_pressure;Samples;Min_cycle;Max_cycle;Signal;HPM_P1;HPM_P2
2022/03/28 00:00:46;;;;;;;26.47;21.77;;;;;20.50;101530.00;;;;2078712;28;20209;-47
2022/03/28 00:01:47;;;;;;;24.60;21.83;;;;;20.60;101525.00;;;;2078330;28;20205;-47
2022/03/28 00:02:47;;;;;;;22.30;19.70;;;;;20.50;101523.00;;;;2078712;28;20308;-47
2022/03/28 00:03:48;;;;;;;24.90;22.10;;;;;20.50;101533.00;;;;2076790;28;20213;-47
2022/03/28 00:04:48;;;;;;;24.10;21.53;;;;;20.50;101530.00;;;;2078713;28;20251;-47
2022/03/28 00:05:48;;;;;;;25.50;21.23;;;;;20.60;101525.00;;;;2078032;28;20214;-47
2022/03/28 00:06:49;;;;;;;25.63;21.17;;;;;20.50;101523.00;;;;2078399;28;20221;-47
2022/03/28 00:07:49;;;;;;;24.90;21.73;;;;;20.50;101524.00;;;;2078594;28;20221;-47
2022/03/28 00:08:50;;;;;;;26.03;21.63;;;;;20.50;101521.00;;;;2077752;28;20744;-46
2022/03/28 00:09:50;;;;;;;23.40;20.87;;;;;20.50;101518.00;;;;2078519;28;20573;-47
2022/03/28 00:10:50;;;;;;;25.23;22.33;;;;;20.50;101520.00;;;;2078375;28;20245;-47
2022/03/28 00:11:51;;;;;;;22.97;20.27;;;;;20.50;101521.00;;;;2078645;28;20213;-47
2022/03/28 00:12:51;;;;;;;22.77;19.47;;;;;20.50;101515.00;;;;2078788;28;20221;-47
2022/03/28 00:13:51;;;;;;;20.77;18.50;;;;;20.50;101519.00;;;;2078090;28;20217;-48
2022/03/28 00:14:52;;;;;;;23.80;21.30;;;;;20.50;101519.00;;;;2077758;28;20237;-47
2022/03/28 00:15:52;;;;;;;23.23;19.80;;;;;20.50;101521.00;;;;2077972;28;20209;-47
2022/03/28 00:16:55;;;;;;;22.33;19.93;;;;;20.50;101522.00;;;;2069710;28;20256;-48
2022/03/28 00:17:55;;;;;;;23.67;19.15;;;;;20.50;101521.00;;;;2069732;28;20262;-47
2022/03/28 00:18:55;;;;;;;24.17;20.60;;;;;20.50;101517.00;;;;2072308;28;20241;-47
2022/03/28 00:19:56;;;;;;;22.57;19.27;;;;;20.50;101514.00;;;;2070500;28;20210;-47
2022/03/28 00:20:56;;;;;;;20.97;18.70;;;;;20.50;101510.00;;;;2069837;28;20494;-52
2022/03/28 00:21:56;;;;;;;20.73;18.03;;;;;20.50;101510.00;;;;2070341;28;20257;-50
2022/03/28 00:22:57;;;;;;;22.23;19.30;;;;;20.50;101496.00;;;;2070465;28;20218;-50
2022/03/28 00:23:58;;;;;;;20.10;18.00;;;;;20.50;101503.00;;;;2070558;28;20218;-48
2022/03/28 00:24:58;;;;;;;20.27;18.08;;;;;20.50;101507.00;;;;2069387;28;20625;-47
2022/03/28 00:25:59;;;;;;;21.47;17.27;;;;;20.50;101499.00;;;;2066203;28;20218;-48
2022/03/28 00:26:59;;;;;;;20.70;18.50;;;;;20.50;101502.00;;;;2070590;28;20294;-47
2022/03/28 00:28:00;;;;;;;21.17;18.53;;;;;20.40;101498.00;;;;2070493;28;20458;-48
2022/03/28 00:29:00;;;;;;;19.43;17.13;;;;;20.50;101503.00;;;;2070511;28;20701;-47
2022/03/28 00:30:00;;;;;;;20.73;16.93;;;;;20.50;101498.00;;;;2075679;28;20720;-47
2022/03/28 00:31:01;;;;;;;21.17;18.87;;;;;20.50;101499.00;;;;2070791;28;20771;-47
2022/03/28 00:32:01;;;;;;;17.03;15.23;;;;;20.50;101491.00;;;;2078077;28;20713;-47
2022/03/28 00:33:01;;;;;;;17.77;15.87;;;;;20.50;101507.00;;;;2073895;28;20236;-47
2022/03/28 00:34:02;;;;;;;18.07;15.77;;;;;20.50;101492.00;;;;2070723;28;20214;-48
2022/03/28 00:35:02;;;;;;;19.60;17.40;;;;;20.50;101502.00;;;;2070492;28;20215;-47
2022/03/28 00:36:03;;;;;;;18.53;15.47;;;;;20.50;101494.00;;;;2076224;28;20240;-47
2022/03/28 00:37:04;;;;;;;19.30;17.10;;;;;20.50;101494.00;;;;2075337;28;20214;-48
2022/03/28 00:38:05;;;;;;;19.43;17.33;;;;;20.40;101494.00;;;;2077073;28;20217;-47
2022/03/28 00:39:05;;;;;;;18.47;16.30;;;;;20.50;101498.00;;;;2076392;28;20222;-47
2022/03/28 00:40:06;;;;;;;19.53;17.43;;;;;20.50;101487.00;;;;2080028;28;20448;-47
2022/03/28 00:41:06;;;;;;;17.33;15.53;;;;;20.50;101501.00;;;;2080278;28;20213;-48
2022/03/28 00:42:07;;;;;;;20.10;17.07;;;;;20.50;101491.00;;;;2080342;28;21180;-47
2022/03/28 00:43:08;;;;;;;18.13;16.27;;;;;20.40;101493.00;;;;2080160;28;20709;-47
2022/03/28 00:44:08;;;;;;;16.88;15.07;;;;;20.50;101494.00;;;;2080230;28;21042;-47
2022/03/28 00:45:09;;;;;;;16.73;14.97;;;;;20.40;101487.00;;;;2080111;28;20304;-47
2022/03/28 00:46:09;;;;;;;16.20;14.50;;;;;20.40;101491.00;;;;2079393;28;20221;-47
2022/03/28 00:47:09;;;;;;;16.73;15.00;;;;;20.40;101487.00;;;;2080066;28;20240;-47
2022/03/28 00:48:10;;;;;;;18.90;16.47;;;;;20.40;101480.00;;;;2079828;28;20283;-47
2022/03/28 00:49:11;;;;;;;17.07;15.27;;;;;20.40;101484.00;;;;2072708;28;20288;-48
2022/03/28 00:50:11;;;;;;;16.20;14.60;;;;;20.40;101484.00;;;;2071193;28;20460;-47
2022/03/28 00:51:11;;;;;;;15.57;13.97;;;;;20.40;101481.00;;;;2071348;28;21149;-47
2022/03/28 00:52:12;;;;;;;17.90;15.47;;;;;20.40;101493.00;;;;2071061;28;20749;-47
2022/03/28 00:53:14;;;;;;;15.52;13.68;;;;;20.40;101483.00;;;;2063847;28;20219;-50
2022/03/28 00:54:15;;;;;;;16.20;14.50;;;;;20.40;101485.00;;;;2067598;28;20293;-48
2022/03/28 00:55:15;;;;;;;16.33;14.63;;;;;20.40;101478.00;;;;2071362;28;20214;-47
2022/03/28 00:56:15;;;;;;;15.10;13.57;;;;;20.40;101478.00;;;;2078699;28;20287;-48
2022/03/28 00:57:17;;;;;;;14.73;13.13;;;;;20.40;101476.00;;;;2080202;28;20589;-47
2022/03/28 00:58:17;;;;;;;17.13;15.25;;;;;20.40;101478.00;;;;2079586;28;20245;-48
2022/03/28 00:59:18;;;;;;;16.53;14.73;;;;;20.40;101481.00;;;;2080161;28;20213;-47
2022/03/28 01:00:18;;;;;;;15.50;13.87;;;;;20.40;101479.00;;;;2079356;28;20218;-47
2022/03/28 01:01:19;;;;;;;16.50;14.80;;;;;20.40;101483.00;;;;2079526;28;20214;-47
2022/03/28 01:02:19;;;;;;;17.10;15.30;;;;;20.30;101474.00;;;;2079366;28;20264;-47
2022/03/28 01:03:20;;;;;;;15.90;14.20;;;;;20.40;101485.00;;;;2078404;28;20205;-47
2022/03/28 01:04:20;;;;;;;16.80;14.77;;;;;20.40;101479.00;;;;2071043;28;20222;-47
2022/03/28 01:05:20;;;;;;;16.40;13.97;;;;;20.40;101470.00;;;;2070729;28;20832;-47
2022/03/28 01:06:21;;;;;;;15.20;13.60;;;;;20.40;101472.00;;;;2070341;28;20207;-47
2022/03/28 01:07:21;;;;;;;15.50;13.87;;;;;20.40;101471.00;;;;2070749;28;20218;-48
2022/03/28 01:08:22;;;;;;;16.13;13.83;;;;;20.40;101464.00;;;;2070511;28;20221;-47
2022/03/28 01:09:22;;;;;;;15.07;13.47;;;;;20.30;101456.00;;;;2054081;28;20242;-46
2022/03/28 01:10:23;;;;;;;18.00;13.43;;;;;20.50;101469.00;;;;2055115;28;20222;-47
2022/03/28 01:11:24;;;;;;;16.08;14.00;;;;;20.40;101469.00;;;;2055103;28;21866;-47
2022/03/28 01:12:30;;;;;;;13.82;12.43;;;;;20.40;101466.00;;;;2063209;28;20211;-48
2022/03/28 01:13:35;;;;;;;16.58;12.70;;;;;20.30;101457.00;;;;2063938;28;20210;-47
2022/03/28 01:14:36;;;;;;;15.90;13.10;;;;;20.30;101459.00;;;;2076072;28;20210;-49
2022/03/28 01:15:36;;;;;;;15.00;13.43;;;;;20.30;101456.00;;;;2073258;28;20204;-47
2022/03/28 01:18:05;;;;;;;15.03;13.53;;;;;20.30;101459.00;;;;2078670;28;20202;-48
2022/03/28 01:18:06;;;;;;;14.00;12.60;;;;;20.30;101458.00;;;;2071588;28;20225;-47
2022/03/28 01:19:06;;;;;;;14.63;12.30;;;;;20.40;101447.00;;;;2076152;28;20700;-48
2022/03/28 01:20:07;;;;;;;13.97;12.57;;;;;20.40;101455.00;;;;2077504;28;20277;-47
2022/03/28 01:21:07;;;;;;;14.70;13.20;;;;;20.40;101453.00;;;;2071928;28;20268;-48
2022/03/28 01:22:08;;;;;;;13.30;11.90;;;;;20.30;101451.00;;;;2071688;28;20632;-47
2022/03/28 01:23:08;;;;;;;14.17;12.70;;;;;20.30;101452.00;;;;2071552;28;21150;-50
2022/03/28 01:24:09;;;;;;;14.10;12.60;;;;;20.30;101445.00;;;;2071699;28;20225;-47
2022/03/28 01:25:10;;;;;;;12.97;11.77;;;;;20.30;101454.00;;;;2071412;28;20226;-47
2022/03/28 01:26:12;;;;;;;14.00;12.50;;;;;20.30;101445.00;;;;2070770;28;20453;-47
2022/03/28 01:27:13;;;;;;;13.10;11.75;;;;;20.30;101446.00;;;;2070958;28;20297;-47
2022/03/28 01:28:15;;;;;;;15.05;13.13;;;;;20.30;101449.00;;;;2069909;28;20702;-47
2022/03/28 01:29:16;;;;;;;13.95;12.10;;;;;20.40;101446.00;;;;2070555;28;20222;-47
2022/03/28 01:30:16;;;;;;;14.23;12.20;;;;;20.40;101447.00;;;;2075256;28;20713;-47
2022/03/28 01:31:16;;;;;;;14.03;12.53;;;;;20.30;101440.00;;;;2071758;28;20210;-47
2022/03/28 01:32:17;;;;;;;14.00;12.03;;;;;20.40;101445.00;;;;2071846;28;20302;-47
2022/03/28 01:33:17;;;;;;;13.40;11.73;;;;;20.30;101445.00;;;;2063218;28;20218;-48
2022/03/28 01:34:18;;;;;;;13.53;11.97;;;;;20.40;101455.00;;;;2079188;28;20201;-47
2022/03/28 01:35:26;;;;;;;12.98;11.65;;;;;20.40;101431.00;;;;2077294;28;20201;-47
2022/03/28 01:36:29;;;;;;;12.32;10.93;;;;;20.30;101427.00;;;;2071732;28;20206;-48
2022/03/28 01:37:29;;;;;;;13.02;11.57;;;;;20.30;101432.00;;;;2076538;28;20270;-47
2022/03/28 01:38:29;;;;;;;12.93;11.63;;;;;20.30;101430.00;;;;2079895;28;20221;-47
2022/03/28 01:39:31;;;;;;;13.17;11.87;;;;;20.40;101430.00;;;;2079902;28;20217;-47
2022/03/28 01:40:32;;;;;;;13.02;11.63;;;;;20.30;101423.00;;;;2080069;28;20224;-47
2022/03/28 01:41:33;;;;;;;13.50;12.02;;;;;20.30;101427.00;;;;2071787;28;20214;-48
2022/03/28 01:42:33;;;;;;;12.90;11.60;;;;;20.30;101427.00;;;;2071610;28;20217;-48
2022/03/28 01:43:33;;;;;;;12.73;11.43;;;;;20.30;101420.00;;;;2071791;28;20249;-48
2022/03/28 01:44:34;;;;;;;12.00;10.70;;;;;20.30;101422.00;;;;2071432;28;20218;-47
2022/03/28 01:45:34;;;;;;;14.00;10.97;;;;;20.30;101422.00;;;;2071491;28;20222;-48
2022/03/28 01:46:44;;;;;;;12.90;11.30;;;;;20.30;101423.00;;;;2079729;28;20245;-48
2022/03/28 01:47:46;;;;;;;12.35;11.05;;;;;20.30;101419.00;;;;2079213;28;20239;-49
2022/03/28 01:48:46;;;;;;;12.20;11.05;;;;;20.30;101423.00;;;;2078898;28;20210;-48
2022/03/28 01:49:46;;;;;;;11.67;10.50;;;;;20.30;101420.00;;;;2077451;28;20326;-48
2022/03/28 01:50:47;;;;;;;12.97;11.50;;;;;20.30;101411.00;;;;2074310;28;20209;-48
2022/03/28 01:51:48;;;;;;;12.50;11.30;;;;;20.30;101419.00;;;;2079647;28;20210;-47
2022/03/28 01:52:48;;;;;;;13.10;11.60;;;;;20.30;101416.00;;;;2078296;28;20655;-48
2022/03/28 01:53:48;;;;;;;13.37;12.03;;;;;20.30;101433.00;;;;2079801;28;20217;-48
2022/03/28 01:54:49;;;;;;;12.00;10.80;;;;;20.30;101419.00;;;;2076572;28;20237;-50
2022/03/28 01:55:49;;;;;;;12.40;11.10;;;;;20.30;101416.00;;;;2077949;28;20228;-48
2022/03/28 01:56:49;;;;;;;12.03;10.83;;;;;20.30;101415.00;;;;2071080;28;20214;-47
2022/03/28 01:57:50;;;;;;;12.37;11.17;;;;;20.30;101423.00;;;;2071510;28;20207;-48
2022/03/28 01:58:50;;;;;;;11.63;10.43;;;;;20.30;101417.00;;;;2063195;28;20305;-49
2022/03/28 01:59:50;;;;;;;12.10;10.83;;;;;20.30;101402.00;;;;2085859;28;20612;-48
2022/03/28 02:00:51;;;;;;;13.77;11.33;;;;;20.30;101405.00;;;;2086072;28;20651;-48
2022/03/28 02:01:51;;;;;;;11.33;10.13;;;;;20.30;101405.00;;;;2077534;28;20705;-48
2022/03/28 02:02:52;;;;;;;11.57;10.40;;;;;20.30;101399.00;;;;2079384;28;20722;-48
2022/03/28 02:03:52;;;;;;;12.00;10.70;;;;;20.30;101400.00;;;;2072669;28;21018;-47
2022/03/28 02:04:52;;;;;;;12.27;10.97;;;;;20.30;101402.00;;;;2070413;28;20210;-48
2022/03/28 02:05:53;;;;;;;11.23;10.10;;;;;20.30;101396.00;;;;2070214;28;20225;-47
2022/03/28 02:06:53;;;;;;;11.67;10.47;;;;;20.30;101400.00;;;;2069141;28;20210;-48
2022/03/28 02:07:54;;;;;;;13.00;11.70;;;;;20.30;101393.00;;;;2070870;28;20217;-48
2022/03/28 02:08:54;;;;;;;12.40;11.07;;;;;20.20;101394.00;;;;2074287;28;20214;-48
2022/03/28 02:09:55;;;;;;;11.80;10.60;;;;;20.30;101396.00;;;;2078870;28;20465;-48
2022/03/28 02:10:56;;;;;;;11.83;10.63;;;;;20.30;101393.00;;;;2074027;28;20682;-48
2022/03/28 02:11:56;;;;;;;10.37;9.27;;;;;20.30;101398.00;;;;2073877;28;20202;-48
2022/03/28 02:12:56;;;;;;;11.00;9.90;;;;;20.30;101389.00;;;;2075125;28;20225;-47
2022/03/28 02:13:57;;;;;;;11.57;9.60;;;;;20.30;101399.00;;;;2074787;28;20264;-48
2022/03/28 02:14:57;;;;;;;11.67;10.47;;;;;20.30;101400.00;;;;2073205;28;20245;-47
2022/03/28 02:15:58;;;;;;;11.37;10.37;;;;;20.30;101397.00;;;;2078704;28;20240;-48
2022/03/28 02:16:59;;;;;;;11.63;10.32;;;;;20.30;101401.00;;;;2075547;28;20232;-48
2022/03/28 02:17:59;;;;;;;10.73;9.73;;;;;20.30;101395.00;;;;2078949;28;20241;-49
2022/03/28 02:18:59;;;;;;;12.13;10.63;;;;;20.30;101398.00;;;;2077306;28;20223;-47
2022/03/28 02:20:00;;;;;;;11.07;9.97;;;;;20.30;101398.00;;;;2077442;28;20229;-47
2022/03/28 02:21:00;;;;;;;10.90;9.67;;;;;20.30;101397.00;;;;2079302;28;20235;-47
2022/03/28 02:22:01;;;;;;;13.67;10.20;;;;;20.20;101390.00;;;;2071371;28;20225;-47
2022/03/28 02:23:01;;;;;;;10.90;9.80;;;;;20.20;101385.00;;;;2070645;28;20226;-48
2022/03/28 02:24:01;;;;;;;11.00;9.90;;;;;20.20;101383.00;;;;2070906;28;20226;-50
2022/03/28 02:25:05;;;;;;;11.00;9.83;;;;;20.30;101389.00;;;;2071429;28;20210;-48
2022/03/28 02:26:06;;;;;;;11.82;10.30;;;;;20.20;101390.00;;;;2070658;28;20697;-46
2022/03/28 02:27:07;;;;;;;10.53;9.43;;;;;20.20;101381.00;;;;2071174;28;20218;-47
2022/03/28 02:28:08;;;;;;;11.30;9.80;;;;;20.20;101385.00;;;;2071313;28;20697;-47
2022/03/28 02:29:08;;;;;;;11.23;10.13;;;;;20.20;101384.00;;;;2074151;28;20575;-47
2022/03/28 02:30:09;;;;;;;11.10;10.00;;;;;20.20;101383.00;;;;2074723;28;20222;-47
2022/03/28 02:31:10;;;;;;;10.43;9.38;;;;;20.20;101388.00;;;;2076625;28;20222;-47
2022/03/28 02:32:12;;;;;;;11.50;10.10;;;;;20.20;101386.00;;;;2071466;28;20241;-48
2022/03/28 02:33:12;;;;;;;11.00;9.75;;;;;20.20;101386.00;;;;2064803;28;20492;-47
2022/03/28 02:34:13;;;;;;;13.43;10.23;;;;;20.20;101389.00;;;;2070655;28;20230;-47
2022/03/28 02:35:14;;;;;;;11.70;10.07;;;;;20.20;101382.00;;;;2072973;28;20210;-46
2022/03/28 02:36:14;;;;;;;10.80;9.70;;;;;20.20;101379.00;;;;2078727;28;20217;-47
2022/03/28 02:37:15;;;;;;;10.37;9.20;;;;;20.20;101382.00;;;;2071848;28;20264;-47
2022/03/28 02:38:15;;;;;;;10.97;9.87;;;;;20.20;101373.00;;;;2075402;28;20217;-47
2022/03/28 02:39:15;;;;;;;10.90;9.87;;;;;20.20;101375.00;;;;2073754;28;20218;-46
2022/03/28 02:40:16;;;;;;;10.70;9.60;;;;;20.20;101372.00;;;;2071033;28;20214;-47
2022/03/28 02:41:16;;;;;;;10.00;8.47;;;;;20.20;101371.00;;;;2069105;28;20245;-47
2022/03/28 02:42:22;;;;;;;10.73;9.50;;;;;20.20;101364.00;;;;2070957;28;20226;-49
2022/03/28 02:43:23;;;;;;;11.60;10.05;;;;;20.20;101368.00;;;;2070848;28;20219;-49
2022/03/28 02:44:23;;;;;;;11.13;10.10;;;;;20.20;101361.00;;;;2071051;28;20211;-47
2022/03/28 02:45:24;;;;;;;11.27;9.17;;;;;20.20;101366.00;;;;2070879;28;20445;-47
2022/03/28 02:46:24;;;;;;;10.52;9.52;;;;;20.20;101374.00;;;;2073967;28;20292;-47
2022/03/28 02:47:25;;;;;;;9.90;8.90;;;;;20.20;101361.00;;;;2076467;28;20712;-48
2022/03/28 02:48:25;;;;;;;10.87;9.87;;;;;20.20;101356.00;;;;2075870;28;20716;-47
2022/03/28 02:49:26;;;;;;;11.10;9.70;;;;;20.20;101366.00;;;;2071049;28;20759;-47
2022/03/28 02:50:27;;;;;;;11.57;9.93;;;;;20.20;101362.00;;;;2075531;28;20201;-47
2022/03/28 02:51:27;;;;;;;10.33;9.33;;;;;20.20;101360.00;;;;2077399;28;20209;-49
2022/03/28 02:52:27;;;;;;;10.97;9.87;;;;;20.20;101365.00;;;;2071155;28;21081;-47
2022/03/28 02:53:28;;;;;;;10.07;9.03;;;;;20.20;101359.00;;;;2078253;28;20691;-48
2022/03/28 02:54:28;;;;;;;10.10;9.10;;;;;20.20;101358.00;;;;2074693;28;20221;-47
2022/03/28 02:55:28;;;;;;;10.60;9.47;;;;;20.20;101360.00;;;;2074091;28;20348;-49
2022/03/28 02:56:29;;;;;;;9.67;8.70;;;;;20.20;101358.00;;;;2071027;28;20612;-49
2022/03/28 02:57:29;;;;;;;11.00;9.40;;;;;20.20;101359.00;;;;2070810;28;20213;-46
2022/03/28 02:58:30;;;;;;;10.90;9.80;;;;;20.20;101350.00;;;;2074903;28;20209;-47
2022/03/28 02:59:30;;;;;;;10.80;9.70;;;;;20.20;101358.00;;;;2078809;28;20220;-48
2022/03/28 03:00:30;;;;;;;10.70;9.60;;;;;20.20;101358.00;;;;2073065;28;20230;-48
2022/03/28 03:01:31;;;;;;;10.70;9.60;;;;;20.20;101351.00;;;;2071004;28;20213;-47
2022/03/28 03:02:31;;;;;;;9.27;8.40;;;;;20.20;101356.00;;;;2070939;28;20234;-48
2022/03/28 03:03:31;;;;;;;9.80;8.40;;;;;20.20;101350.00;;;;2069726;28;20776;-47
2022/03/28 03:04:32;;;;;;;9.67;8.53;;;;;20.20;101349.00;;;;2072904;28;20605;-47
2022/03/28 03:05:32;;;;;;;9.77;8.87;;;;;20.20;101346.00;;;;2078211;28;20732;-48
2022/03/28 03:06:32;;;;;;;9.70;8.70;;;;;20.20;101341.00;;;;2078904;28;20324;-47
2022/03/28 03:07:33;;;;;;;10.60;9.60;;;;;20.20;101347.00;;;;2078771;28;20220;-48
2022/03/28 03:08:33;;;;;;;9.57;8.63;;;;;20.20;101351.00;;;;2078085;28;20293;-48
2022/03/28 03:09:33;;;;;;;10.23;8.40;;;;;20.20;101351.00;;;;2075469;28;21036;-47
2022/03/28 03:10:34;;;;;;;9.87;8.97;;;;;20.20;101351.00;;;;2070856;28;20686;-48
2022/03/28 03:11:34;;;;;;;9.77;8.60;;;;;20.20;101351.00;;;;2070889;28;20704;-48
2022/03/28 03:12:35;;;;;;;10.10;9.17;;;;;20.20;101348.00;;;;2070913;28;20235;-47
2022/03/28 03:13:38;;;;;;;9.70;8.80;;;;;20.20;101350.00;;;;2070820;28;20217;-47
2022/03/28 03:14:38;;;;;;;9.85;8.82;;;;;20.10;101343.00;;;;2072823;28;20222;-50
2022/03/28 03:15:38;;;;;;;10.33;9.23;;;;;20.20;101348.00;;;;2072698;28;20214;-49
2022/03/28 03:16:40;;;;;;;10.30;9.30;;;;;20.10;101345.00;;;;2070378;28;20264;-48
2022/03/28 03:17:40;;;;;;;9.88;8.77;;;;;20.10;101344.00;;;;2070746;28;20213;-48
2022/03/28 03:18:41;;;;;;;11.17;8.80;;;;;20.10;101339.00;;;;2077752;28;20217;-47
2022/03/28 03:19:41;;;;;;;9.73;8.73;;;;;20.10;101334.00;;;;2079149;28;20244;-47
2022/03/28 03:20:42;;;;;;;10.23;9.13;;;;;20.20;101338.00;;;;2078927;28;20400;-50
2022/03/28 03:21:42;;;;;;;10.23;9.23;;;;;20.20;101337.00;;;;2078758;28;20205;-47
2022/03/28 03:22:42;;;;;;;10.20;9.20;;;;;20.10;101332.00;;;;2075460;28;20230;-47
2022/03/28 03:23:43;;;;;;;9.27;8.47;;;;;20.20;101333.00;;;;2070051;28;20368;-47
2022/03/28 03:24:44;;;;;;;10.00;9.00;;;;;20.10;101328.00;;;;2071858;28;20313;-48
2022/03/28 03:25:44;;;;;;;10.40;8.90;;;;;20.10;101334.00;;;;2078049;28;20221;-48
2022/03/28 03:26:45;;;;;;;9.80;8.90;;;;;20.10;101254.00;;;;2079088;28;20503;-47
2022/03/28 03:27:45;;;;;;;10.10;9.10;;;;;20.10;101325.00;;;;2078020;28;20344;-47
2022/03/28 03:28:45;;;;;;;10.07;9.10;;;;;20.10;101332.00;;;;2070963;28;20213;-48
2022/03/28 03:29:47;;;;;;;10.40;9.50;;;;;20.10;101326.00;;;;2068728;28;20231;-48
2022/03/28 03:30:48;;;;;;;9.40;8.40;;;;;20.10;101323.00;;;;2070784;28;20214;-48
2022/03/28 03:31:48;;;;;;;10.03;9.03;;;;;20.10;101324.00;;;;2070299;28;20606;-47
2022/03/28 03:32:48;;;;;;;8.90;8.10;;;;;20.10;101324.00;;;;2070102;28;20222;-47
2022/03/28 03:33:49;;;;;;;10.20;9.03;;;;;20.10;101327.00;;;;2070259;28;20217;-48
2022/03/28 03:34:51;;;;;;;9.93;8.97;;;;;20.10;101324.00;;;;2070275;28;20242;-47
2022/03/28 03:35:53;;;;;;;9.25;8.35;;;;;20.10;101331.00;;;;2069904;28;20226;-47
2022/03/28 03:36:53;;;;;;;11.02;8.82;;;;;20.10;101327.00;;;;2070472;28;20217;-47
2022/03/28 03:37:54;;;;;;;9.40;8.50;;;;;20.10;101325.00;;;;2070578;28;20214;-47
2022/03/28 03:38:54;;;;;;;9.80;8.80;;;;;20.10;101324.00;;;;2069540;28;20221;-47
2022/03/28 03:39:55;;;;;;;9.50;8.63;;;;;20.10;101323.00;;;;2070057;28;20222;-47
2022/03/28 03:40:55;;;;;;;10.00;8.93;;;;;20.10;101315.00;;;;2070176;28;20225;-48
2022/03/28 03:41:56;;;;;;;10.30;9.30;;;;;20.10;101320.00;;;;2070827;28;20229;-47
2022/03/28 03:42:56;;;;;;;9.57;8.67;;;;;20.10;101324.00;;;;2070291;28;20743;-48
2022/03/28 03:43:56;;;;;;;9.70;8.23;;;;;20.10;101320.00;;;;2070226;28;20292;-48
2022/03/28 03:44:57;;;;;;;10.23;9.17;;;;;20.10;101324.00;;;;2070292;28;20259;-48
2022/03/28 03:45:57;;;;;;;10.97;9.70;;;;;20.10;101327.00;;;;2075811;28;20225;-49
2022/03/28 03:46:58;;;;;;;9.87;8.87;;;;;20.10;101328.00;;;;2072046;28;20510;-48
2022/03/28 03:47:58;;;;;;;9.70;8.57;;;;;20.10;101325.00;;;;2070444;28;20245;-48
2022/03/28 03:48:58;;;;;;;10.93;8.57;;;;;20.10;101322.00;;;;2077675;28;20213;-49
2022/03/28 03:49:59;;;;;;;9.57;8.57;;;;;20.00;101325.00;;;;2078375;28;20214;-48
2022/03/28 03:50:59;;;;;;;10.07;9.00;;;;;20.00;101315.00;;;;2078188;28;20573;-48
2022/03/28 03:51:59;;;;;;;11.73;9.60;;;;;20.00;101313.00;;;;2071481;28;20647;-48
2022/03/28 03:53:00;;;;;;;10.13;9.13;;;;;20.00;101319.00;;;;2078757;28;20587;-48
2022/03/28 03:54:00;;;;;;;10.17;9.00;;;;;20.10;101324.00;;;;2078777;28;20266;-49
2022/03/28 03:55:00;;;;;;;12.00;8.90;;;;;20.10;101320.00;;;;2077488;28;20224;-48
2022/03/28 03:56:01;;;;;;;9.67;8.43;;;;;20.10;101316.00;;;;2075838;28;20224;-47
2022/03/28 03:57:02;;;;;;;10.13;9.07;;;;;20.10;101315.00;;;;2070404;28;20698;-48
2022/03/28 03:58:03;;;;;;;10.13;9.18;;;;;20.10;101313.00;;;;2069746;28;20349;-48
2022/03/28 03:59:03;;;;;;;9.97;9.03;;;;;20.10;101310.00;;;;2070187;28;20268;-47
2022/03/28 04:00:06;;;;;;;11.63;8.97;;;;;20.00;101310.00;;;;2070081;28;20476;-48
2022/03/28 04:01:08;;;;;;;8.65;7.75;;;;;20.00;101308.00;;;;2073587;28;20213;-48
2022/03/28 04:02:09;;;;;;;9.90;8.93;;;;;20.00;101314.00;;;;2069964;28;20218;-47
2022/03/28 04:03:09;;;;;;;11.33;9.53;;;;;20.00;101317.00;;;;2070107;28;20229;-47
2022/03/28 04:04:12;;;;;;;9.17;8.20;;;;;20.00;101311.00;;;;2070460;28;20579;-47
2022/03/28 04:05:13;;;;;;;9.93;8.45;;;;;20.10;101305.00;;;;2070499;28;20226;-47
2022/03/28 04:06:13;;;;;;;9.70;8.13;;;;;20.00;101310.00;;;;2069949;28;20302;-47
2022/03/28 04:07:13;;;;;;;8.87;7.80;;;;;20.10;101302.00;;;;2070468;28;20566;-47
2022/03/28 04:08:14;;;;;;;8.67;7.77;;;;;20.10;101300.00;;;;2070311;28;20819;-47
2022/03/28 04:09:14;;;;;;;9.03;8.07;;;;;20.10;101302.00;;;;2070045;28;21036;-47
2022/03/28 04:10:14;;;;;;;9.07;8.10;;;;;20.00;101300.00;;;;2070530;28;20883;-47
2022/03/28 04:11:15;;;;;;;8.97;8.03;;;;;20.10;101306.00;;;;2071033;28;20214;-46
2022/03/28 04:12:15;;;;;;;9.20;7.90;;;;;20.00;101311.00;;;;2072658;28;20222;-48
2022/03/28 04:13:15;;;;;;;8.80;7.90;;;;;20.10;101310.00;;;;2072952;28;20217;-46
2022/03/28 04:14:16;;;;;;;9.80;8.30;;;;;20.10;101305.00;;;;2073268;28;20706;-46
2022/03/28 04:15:16;;;;;;;9.40;8.50;;;;;20.00;101304.00;;;;2072976;28;20686;-47
2022/03/28 04:16:17;;;;;;;9.60;8.57;;;;;20.00;101309.00;;;;2068928;28;21039;-45
2022/03/28 04:17:17;;;;;;;9.47;8.57;;;;;20.00;101303.00;;;;2080460;28;20967;-47
2022/03/28 04:18:17;;;;;;;8.70;7.80;;;;;20.00;101305.00;;;;2075223;28;20626;-47
2022/03/28 04:19:18;;;;;;;9.47;8.07;;;;;20.00;101303.00;;;;2079354;28;20213;-46
2022/03/28 04:20:18;;;;;;;9.17;8.27;;;;;20.00;101297.00;;;;2081395;28;20225;-46
2022/03/28 04:21:18;;;;;;;8.87;7.90;;;;;20.00;101296.00;;;;2081448;28;20220;-46
2022/03/28 04:22:19;;;;;;;9.60;8.60;;;;;20.00;101299.00;;;;2081357;28;20245;-47
2022/03/28 04:23:19;;;;;;;8.27;7.47;;;;;20.00;101302.00;;;;2081291;28;20227;-47
2022/03/28 04:24:20;;;;;;;8.83;7.93;;;;;20.00;101296.00;;;;2081342;28;20213;-47
2022/03/28 04:25:21;;;;;;;9.07;7.30;;;;;20.00;101297.00;;;;2080760;28;20244;-47
2022/03/28 04:26:21;;;;;;;9.80;8.80;;;;;20.00;101303.00;;;;2081118;28;20316;-46
2022/03/28 04:27:21;;;;;;;8.73;7.47;;;;;20.00;101299.00;;;;2077368;28;20245;-46
2022/03/28 04:28:21;;;;;;;8.27;7.37;;;;;20.00;101305.00;;;;2074279;28;20214;-48
2022/03/28 04:29:22;;;;;;;9.00;7.50;;;;;20.10;101299.00;;;;2072873;28;20284;-47
2022/03/28 04:30:23;;;;;;;10.70;9.07;;;;;20.00;101302.00;;;;2073315;28;20206;-47
2022/03/28 04:31:23;;;;;;;9.60;8.60;;;;;20.10;101305.00;;;;2072956;28;20219;-47
2022/03/28 04:32:24;;;;;;;10.00;8.77;;;;;20.00;101300.00;;;;2079591;28;20478;-47
2022/03/28 04:33:24;;;;;;;11.47;7.73;;;;;20.00;101306.00;;;;2077766;28;20708;-47
2022/03/28 04:34:24;;;;;;;9.30;8.30;;;;;20.00;101305.00;;;;2088812;28;20363;-47
2022/03/28 04:35:25;;;;;;;8.87;7.80;;;;;20.00;101306.00;;;;2081117;28;20223;-46
2022/03/28 04:36:26;;;;;;;9.53;8.57;;;;;20.00;101307.00;;;;2078925;28;20217;-47
2022/03/28 04:37:26;;;;;;;9.40;8.40;;;;;20.00;101311.00;;;;2073097;28;20244;-47
2022/03/28 04:38:26;;;;;;;9.00;7.90;;;;;20.00;101307.00;;;;2073178;28;20571;-46
2022/03/28 04:39:27;;;;;;;9.27;7.90;;;;;20.00;101305.00;;;;2073941;28;20218;-46
2022/03/28 04:40:27;;;;;;;9.73;7.20;;;;;19.90;101309.00;;;;2080676;28;20243;-47
2022/03/28 04:41:27;;;;;;;9.47;7.33;;;;;20.00;101296.00;;;;2081089;28;20947;-47
2022/03/28 04:42:28;;;;;;;9.27;7.80;;;;;20.00;101305.00;;;;2081000;28;20228;-47
2022/03/28 04:43:28;;;;;;;8.73;7.83;;;;;20.00;101299.00;;;;2081394;28;20263;-47
2022/03/28 04:44:28;;;;;;;8.17;7.37;;;;;20.00;101304.00;;;;2078232;28;20747;-47
2022/03/28 04:45:30;;;;;;;8.00;7.23;;;;;20.00;101306.00;;;;2080483;28;20983;-46
2022/03/28 04:46:31;;;;;;;9.15;8.23;;;;;20.00;101309.00;;;;2080751;28;20316;-47
2022/03/28 04:47:31;;;;;;;9.85;8.43;;;;;20.00;101303.00;;;;2080819;28;20241;-47
2022/03/28 04:48:32;;;;;;;10.50;8.30;;;;;20.00;101306.00;;;;2081474;28;20668;-47
2022/03/28 04:49:32;;;;;;;7.60;6.87;;;;;20.00;101306.00;;;;2081353;28;20275;-47
2022/03/28 04:50:33;;;;;;;8.53;7.73;;;;;20.00;101304.00;;;;2081470;28;20403;-47
2022/03/28 04:51:36;;;;;;;8.32;7.53;;;;;20.00;101310.00;;;;2081243;28;20727;-47
2022/03/28 04:52:36;;;;;;;9.10;7.75;;;;;20.00;101305.00;;;;2081215;28;20619;-47
2022/03/28 04:53:36;;;;;;;8.07;7.27;;;;;20.00;101301.00;;;;2081291;28;20221;-47
2022/03/28 04:54:37;;;;;;;9.23;8.03;;;;;20.00;101305.00;;;;2081472;28;20237;-47
2022/03/28 04:55:37;;;;;;;9.10;7.13;;;;;20.00;101309.00;;;;2081034;28;20221;-47